Search for airport 
image banner adimage banner adimage banner ad
image banner ad

MHLC - Goloson

Located in La Ceiba, Honduras

ICAO - MHLC, IATA - LCE

Data provided by Airmate  

General information

Coordinates: N15°44'33" W86°51'12"
Elevation is 49 feet MSL.
 
View others Airports in Atlantida

Operational data

Special qualification required
Current time UTC:
Current local time:
Weather
METAR: MHLC 082200Z 06017KT 9999 FEW028CB 30/24 Q1011 A2986 NOSIG
TAF: TAF MHLC 081720Z 0818/0918 02012KT 9999 FEW026 SCT080 TX31/0819Z TN23/0912Z PROB30 TEMPO 0821/0903 7000 TSVCSH SCT026TCU FEW028CB BECMG 0903/0905 08005KT 6000 -RA SCT024 BKN080 BECMG 0907/0909 VRB02KT 9999 NSW SCT022 BECMG 0915/0917 35008KT SCT028TCU
View NOTAMs / SUP AIP / TFR affecting this airport [VIEW]
Communications frequencies: [VIEW]

Runways:

RWY identifierQFULength (ft)Width (ft)SurfaceLDA (ft)
0767°9675148ASP
25247°9675148

Airport contact information

Address: La Ceiba Honduras

Satellite view of MHLC